createdAt,value
2022-10-10T00:01:37.209Z,8.88
2022-10-10T00:04:06.210Z,8.87
2022-10-10T00:06:34.962Z,8.86
2022-10-10T00:09:05.700Z,8.86
2022-10-10T00:11:34.582Z,8.86
2022-10-10T00:14:02.880Z,8.87
2022-10-10T00:16:30.898Z,8.86
2022-10-10T00:18:58.905Z,8.82
2022-10-10T00:21:26.917Z,8.76
2022-10-10T00:23:54.686Z,8.72
2022-10-10T00:26:22.757Z,8.68
2022-10-10T00:28:51.182Z,8.63
2022-10-10T00:31:19.113Z,8.56
2022-10-10T00:33:47.458Z,8.50
2022-10-10T00:36:15.807Z,8.44
2022-10-10T00:38:43.682Z,8.40
2022-10-10T00:41:11.783Z,8.38
2022-10-10T00:43:39.834Z,8.36
2022-10-10T00:46:08.158Z,8.35
2022-10-10T00:48:41.432Z,8.33
2022-10-10T00:51:13.004Z,8.32
2022-10-10T00:54:18.123Z,8.30
2022-10-10T00:57:04.753Z,8.27
2022-10-10T00:59:34.376Z,8.26
2022-10-10T01:02:02.757Z,8.24
2022-10-10T01:04:42.937Z,8.23
2022-10-10T01:07:19.172Z,8.22
2022-10-10T01:09:49.591Z,8.21
2022-10-10T01:12:38.988Z,8.19
2022-10-10T01:15:27.065Z,8.13
2022-10-10T01:18:22.359Z,8.06
2022-10-10T01:20:59.913Z,7.99
2022-10-10T01:23:52.924Z,7.93
2022-10-10T01:26:49.112Z,7.85
2022-10-10T01:29:30.305Z,7.78
2022-10-10T01:32:14.783Z,7.74
2022-10-10T01:35:00.650Z,7.70
2022-10-10T01:37:52.636Z,7.67
2022-10-10T01:40:23.441Z,7.64
2022-10-10T01:42:56.041Z,7.63
2022-10-10T01:45:25.733Z,7.63
2022-10-10T01:47:57.613Z,7.63
2022-10-10T01:50:29.973Z,7.62
2022-10-10T01:52:58.185Z,7.62
2022-10-10T01:55:57.536Z,7.62
2022-10-10T01:58:38.282Z,7.62
2022-10-10T02:01:21.760Z,7.61
2022-10-10T02:04:13.032Z,7.60
2022-10-10T02:06:52.226Z,7.58
2022-10-10T02:09:28.351Z,7.57
2022-10-10T02:11:59.314Z,7.55
2022-10-10T02:14:42.542Z,7.52
2022-10-10T02:17:16.051Z,7.47
2022-10-10T02:19:53.122Z,7.42
2022-10-10T02:22:23.972Z,7.35
2022-10-10T02:24:53.463Z,7.29
2022-10-10T02:27:40.951Z,7.24
2022-10-10T02:30:10.265Z,7.19
2022-10-10T02:32:48.442Z,7.15
2022-10-10T02:35:27.820Z,7.14
2022-10-10T02:37:56.978Z,7.12
2022-10-10T02:40:29.104Z,7.11
2022-10-10T02:43:00.799Z,7.10
2022-10-10T02:45:30.946Z,7.09
2022-10-10T02:48:03.411Z,7.09
2022-10-10T02:50:32.838Z,7.09
2022-10-10T02:53:01.199Z,7.08
2022-10-10T02:55:29.378Z,7.07
2022-10-10T02:57:57.515Z,7.07
2022-10-10T03:00:25.562Z,7.07
2022-10-10T03:02:54.004Z,7.07
2022-10-10T03:05:22.349Z,7.06
2022-10-10T03:07:50.740Z,7.01
2022-10-10T03:10:19.597Z,6.98
2022-10-10T03:12:48.366Z,6.94
2022-10-10T03:15:16.783Z,6.89
2022-10-10T03:17:45.395Z,6.85
2022-10-10T03:20:13.816Z,6.77
2022-10-10T03:22:41.905Z,6.72
2022-10-10T03:25:09.871Z,6.69
2022-10-10T03:27:38.055Z,6.65
2022-10-10T03:30:06.930Z,6.62
2022-10-10T03:32:35.231Z,6.59
2022-10-10T03:35:04.059Z,6.58
2022-10-10T03:37:32.415Z,6.57
2022-10-10T03:40:00.604Z,6.55
2022-10-10T03:42:28.764Z,6.51
2022-10-10T03:44:57.134Z,6.49
2022-10-10T03:47:25.098Z,6.44
2022-10-10T03:49:53.146Z,6.37
2022-10-10T03:52:22.049Z,6.34
2022-10-10T03:54:50.091Z,6.29
2022-10-10T03:57:18.143Z,6.27
2022-10-10T03:59:46.374Z,6.27
2022-10-10T04:02:14.948Z,6.29
2022-10-10T04:04:43.453Z,6.29
2022-10-10T04:07:11.503Z,6.30
2022-10-10T04:09:39.621Z,6.29
2022-10-10T04:12:07.749Z,6.28
2022-10-10T04:14:35.774Z,6.27
2022-10-10T04:17:03.797Z,6.23
2022-10-10T04:19:31.813Z,6.18
2022-10-10T04:22:00.638Z,6.10
2022-10-10T04:24:28.924Z,6.04
2022-10-10T04:26:57.487Z,5.96
2022-10-10T04:29:26.283Z,5.90
2022-10-10T04:31:55.105Z,5.83
2022-10-10T04:34:23.481Z,5.79
2022-10-10T04:36:51.954Z,5.76
2022-10-10T04:39:21.217Z,5.75
2022-10-10T04:41:50.300Z,5.75
2022-10-10T04:44:19.666Z,5.75
2022-10-10T04:46:48.044Z,5.74
2022-10-10T04:49:16.631Z,5.74
2022-10-10T04:51:46.213Z,5.76
2022-10-10T04:54:15.339Z,5.77
2022-10-10T04:56:44.663Z,5.78
2022-10-10T04:59:13.288Z,5.82
2022-10-10T05:01:41.875Z,5.84
2022-10-10T05:04:13.632Z,5.86
2022-10-10T05:06:42.577Z,5.88
2022-10-10T05:09:11.276Z,5.90
2022-10-10T05:11:40.176Z,5.91
2022-10-10T05:14:08.993Z,5.88
2022-10-10T05:16:37.361Z,5.84
2022-10-10T05:19:05.661Z,5.84
2022-10-10T05:21:34.239Z,5.99
2022-10-10T05:24:03.632Z,6.27
2022-10-10T05:26:32.315Z,6.51
2022-10-10T05:29:01.862Z,6.66
2022-10-10T05:31:31.043Z,6.74
2022-10-10T05:33:59.772Z,6.76
2022-10-10T05:36:28.229Z,6.76
2022-10-10T05:38:58.132Z,6.78
2022-10-10T05:41:26.696Z,6.80
2022-10-10T05:43:55.689Z,6.84
2022-10-10T05:46:24.913Z,6.86
2022-10-10T05:48:54.168Z,6.82
2022-10-10T05:51:23.715Z,6.68
2022-10-10T05:53:52.232Z,6.57
2022-10-10T05:56:20.839Z,6.61
2022-10-10T05:58:51.719Z,6.66
2022-10-10T06:01:20.062Z,6.74
2022-10-10T06:03:52.983Z,6.82
2022-10-10T06:06:22.034Z,6.90
2022-10-10T06:08:50.399Z,6.94
2022-10-10T06:11:20.647Z,6.98
2022-10-10T06:13:52.890Z,7.00
2022-10-10T06:16:23.206Z,7.02
2022-10-10T06:18:51.738Z,7.06
2022-10-10T06:21:21.278Z,7.14
2022-10-10T06:23:50.778Z,7.21
2022-10-10T06:26:19.536Z,7.33
2022-10-10T06:28:51.122Z,7.43
2022-10-10T06:31:19.900Z,7.56
2022-10-10T06:33:49.455Z,7.69
2022-10-10T06:36:18.234Z,7.79
2022-10-10T06:38:46.795Z,7.93
2022-10-10T06:41:15.290Z,8.04
2022-10-10T06:43:44.515Z,8.16
2022-10-10T06:46:13.753Z,8.26
2022-10-10T06:48:42.286Z,8.37
2022-10-10T06:51:16.515Z,8.49
2022-10-10T06:53:49.087Z,8.57
2022-10-10T06:56:27.461Z,8.67
2022-10-10T06:58:57.077Z,8.78
2022-10-10T07:01:26.677Z,8.89
2022-10-10T07:03:56.233Z,9.00
2022-10-10T07:06:25.542Z,9.12
2022-10-10T07:08:55.823Z,9.19
2022-10-10T07:11:25.949Z,9.25
2022-10-10T07:13:55.238Z,9.28
2022-10-10T07:16:24.827Z,9.36
2022-10-10T07:18:53.446Z,9.42
2022-10-10T07:21:21.849Z,9.54
2022-10-10T07:23:50.425Z,9.65
2022-10-10T07:26:22.552Z,9.73
2022-10-10T07:28:51.472Z,9.81
2022-10-10T07:31:20.468Z,9.84
2022-10-10T07:33:50.873Z,9.85
2022-10-10T07:36:19.952Z,9.96
2022-10-10T07:38:53.375Z,10.02
2022-10-10T07:41:23.095Z,9.94
2022-10-10T07:43:56.828Z,9.92
2022-10-10T07:46:25.882Z,9.94
2022-10-10T07:48:56.206Z,9.93
2022-10-10T07:51:25.064Z,9.98
2022-10-10T07:53:54.054Z,10.02
2022-10-10T07:56:23.810Z,10.02
2022-10-10T07:58:54.530Z,10.03
2022-10-10T08:01:23.944Z,10.02
2022-10-10T08:03:52.749Z,10.02
2022-10-10T08:06:21.482Z,10.05
2022-10-10T08:08:53.620Z,10.08
2022-10-10T08:11:23.154Z,10.11
2022-10-10T08:13:53.012Z,10.18
2022-10-10T08:16:21.902Z,10.23
2022-10-10T08:18:50.612Z,10.30
2022-10-10T08:21:21.133Z,10.40
2022-10-10T08:23:49.813Z,10.48
2022-10-10T08:26:20.455Z,10.58
2022-10-10T08:28:51.505Z,10.67
2022-10-10T08:31:22.736Z,10.82
2022-10-10T08:33:52.869Z,11.01
2022-10-10T08:36:25.070Z,11.09
2022-10-10T08:39:01.820Z,11.18
2022-10-10T08:41:42.465Z,11.31
2022-10-10T08:44:41.412Z,11.38
2022-10-10T08:47:10.558Z,11.45
2022-10-10T08:50:02.269Z,11.42
2022-10-10T08:52:40.052Z,11.37
2022-10-10T08:55:25.879Z,11.42
2022-10-10T08:58:16.487Z,11.48
2022-10-10T09:00:49.910Z,11.50
2022-10-10T09:03:35.769Z,11.55
2022-10-10T09:06:11.778Z,11.64
2022-10-10T09:08:52.629Z,11.76
2022-10-10T09:11:43.707Z,11.85
2022-10-10T09:14:20.940Z,11.91
2022-10-10T09:17:00.108Z,11.91
2022-10-10T09:19:54.500Z,11.89
2022-10-10T09:22:28.276Z,11.83
2022-10-10T09:25:21.614Z,11.90
2022-10-10T09:28:17.093Z,11.98
2022-10-10T09:30:58.098Z,12.04
2022-10-10T09:33:36.868Z,12.08
2022-10-10T09:36:11.396Z,12.14
2022-10-10T09:38:53.187Z,12.17
2022-10-10T09:41:35.673Z,12.22
2022-10-10T09:44:11.018Z,12.28
2022-10-10T09:46:40.086Z,12.34
2022-10-10T09:49:15.065Z,12.42
2022-10-10T09:51:44.940Z,12.50
2022-10-10T09:54:21.238Z,12.60
2022-10-10T09:56:56.531Z,12.74
2022-10-10T09:59:43.800Z,12.88
2022-10-10T10:02:18.538Z,13.09
2022-10-10T10:04:50.628Z,13.21
2022-10-10T10:07:25.195Z,13.24
2022-10-10T10:10:01.671Z,13.29
2022-10-10T10:12:41.190Z,13.39
2022-10-10T10:15:36.435Z,13.41
2022-10-10T10:18:21.834Z,13.37
2022-10-10T10:20:53.022Z,13.40
2022-10-10T10:23:32.136Z,13.43
2022-10-10T10:26:03.913Z,13.47
2022-10-10T10:28:41.578Z,13.49
2022-10-10T10:31:23.823Z,13.51
2022-10-10T10:34:04.387Z,13.61
2022-10-10T10:36:48.897Z,13.75
2022-10-10T10:39:25.324Z,13.89
2022-10-10T10:42:19.235Z,13.95
2022-10-10T10:45:00.399Z,14.00
2022-10-10T10:48:01.433Z,14.09
2022-10-10T10:50:40.442Z,14.20
2022-10-10T10:53:38.304Z,14.28
2022-10-10T10:56:28.874Z,14.37
2022-10-10T10:59:36.322Z,14.47
2022-10-10T11:02:43.419Z,14.57
2022-10-10T11:05:41.941Z,14.69
2022-10-10T11:08:26.800Z,14.81
2022-10-10T11:11:10.878Z,14.94
2022-10-10T11:14:15.133Z,15.08
2022-10-10T11:16:54.043Z,15.16
2022-10-10T11:19:56.745Z,15.23
2022-10-10T11:22:48.055Z,15.31
2022-10-10T11:25:28.325Z,15.41
2022-10-10T11:28:26.895Z,15.52
2022-10-10T11:31:01.146Z,15.70
2022-10-10T11:33:34.811Z,15.85
2022-10-10T11:36:15.362Z,15.94
2022-10-10T11:39:00.870Z,15.96
2022-10-10T11:41:55.461Z,15.96
2022-10-10T11:44:52.712Z,16.01
2022-10-10T11:47:41.751Z,16.07
2022-10-10T11:50:16.307Z,16.08
2022-10-10T11:53:22.461Z,16.07
2022-10-10T11:56:00.297Z,16.11
2022-10-10T11:58:43.148Z,16.15
2022-10-10T12:01:34.384Z,16.18
2022-10-10T12:04:04.143Z,16.30
2022-10-10T12:06:48.908Z,16.45
2022-10-10T12:09:35.268Z,16.58
2022-10-10T12:12:45.249Z,16.66
2022-10-10T12:15:26.841Z,16.75
2022-10-10T12:17:58.086Z,16.84
2022-10-10T12:20:42.734Z,16.90
2022-10-10T12:23:15.471Z,16.92
2022-10-10T12:25:48.534Z,16.87
2022-10-10T12:28:59.000Z,16.86
2022-10-10T12:31:31.571Z,16.88
2022-10-10T12:34:23.901Z,16.89
2022-10-10T12:37:20.499Z,16.94
2022-10-10T12:40:12.911Z,16.98
2022-10-10T12:43:02.405Z,17.02
2022-10-10T12:45:34.624Z,17.04
2022-10-10T12:48:18.879Z,16.96
2022-10-10T12:51:01.055Z,17.00
2022-10-10T12:53:33.923Z,17.04
2022-10-10T12:56:04.931Z,17.08
2022-10-10T12:58:40.203Z,17.11
2022-10-10T13:01:25.983Z,17.12
2022-10-10T13:04:04.316Z,17.17
2022-10-10T13:06:45.190Z,17.20
2022-10-10T13:09:25.796Z,17.17
2022-10-10T13:12:03.523Z,17.17
2022-10-10T13:14:43.755Z,17.19
2022-10-10T13:17:42.658Z,17.20
2022-10-10T13:20:38.886Z,17.21
2022-10-10T13:23:17.331Z,17.26
2022-10-10T13:25:49.300Z,17.30
2022-10-10T13:28:22.932Z,17.33
2022-10-10T13:30:52.878Z,17.30
2022-10-10T13:33:25.426Z,17.32
2022-10-10T13:36:06.289Z,17.29
2022-10-10T13:38:36.715Z,17.24
2022-10-10T13:41:06.202Z,17.21
2022-10-10T13:43:35.670Z,17.21
2022-10-10T13:46:04.947Z,17.20
2022-10-10T13:48:37.054Z,17.18
2022-10-10T13:51:12.141Z,17.22
2022-10-10T13:53:52.332Z,17.19
2022-10-10T13:56:41.625Z,17.16
2022-10-10T13:59:14.677Z,17.16
2022-10-10T14:01:49.902Z,17.16
2022-10-10T14:04:33.649Z,17.19
2022-10-10T14:07:24.389Z,17.18
2022-10-10T14:10:01.210Z,17.16
2022-10-10T14:12:42.031Z,17.09
2022-10-10T14:15:42.532Z,17.07
2022-10-10T14:18:19.488Z,17.05
2022-10-10T14:20:51.617Z,17.02
2022-10-10T14:23:23.647Z,16.97
2022-10-10T14:25:53.388Z,16.90
2022-10-10T14:28:30.921Z,16.86
2022-10-10T14:31:01.480Z,16.81
2022-10-10T14:33:33.678Z,16.75
2022-10-10T14:36:07.494Z,16.67
2022-10-10T14:38:40.420Z,16.62
2022-10-10T14:41:13.468Z,16.58
2022-10-10T14:43:45.677Z,16.52
2022-10-10T14:46:19.325Z,16.47
2022-10-10T14:48:47.269Z,16.42
2022-10-10T14:51:33.963Z,16.39
2022-10-10T14:54:11.891Z,16.36
2022-10-10T14:57:06.887Z,16.32
2022-10-10T14:59:46.301Z,16.27
2022-10-10T15:02:21.059Z,16.21
2022-10-10T15:04:50.338Z,16.16
2022-10-10T15:07:19.690Z,16.09
2022-10-10T15:10:27.604Z,16.02
2022-10-10T15:12:44.135Z,15.93
2022-10-10T15:15:13.828Z,15.84
2022-10-10T15:17:42.392Z,15.75
2022-10-10T15:20:12.732Z,15.66
2022-10-10T15:22:42.192Z,15.56
2022-10-10T15:25:10.613Z,15.45
2022-10-10T15:27:39.178Z,15.37
2022-10-10T15:30:08.821Z,15.28
2022-10-10T15:32:41.348Z,15.19
2022-10-10T15:35:21.890Z,15.11
2022-10-10T15:37:50.106Z,15.05
2022-10-10T15:40:21.957Z,15.01
2022-10-10T15:42:51.258Z,14.95
2022-10-10T15:45:37.389Z,14.90
2022-10-10T15:48:08.156Z,14.84
2022-10-10T15:50:42.344Z,14.80
2022-10-10T15:53:10.417Z,14.75
2022-10-10T15:55:46.902Z,14.68
2022-10-10T15:58:16.036Z,14.61
2022-10-10T16:00:45.176Z,14.54
2022-10-10T16:03:14.955Z,14.46
2022-10-10T16:05:43.548Z,14.38
2022-10-10T16:08:12.477Z,14.31
2022-10-10T16:10:43.227Z,14.24
2022-10-10T16:13:12.187Z,14.17
2022-10-10T16:15:40.484Z,14.10
2022-10-10T16:18:08.411Z,14.03
2022-10-10T16:20:39.329Z,13.96
2022-10-10T16:23:07.532Z,13.90
2022-10-10T16:25:35.365Z,13.84
2022-10-10T16:28:03.378Z,13.77
2022-10-10T16:30:31.489Z,13.72
2022-10-10T16:32:59.617Z,13.71
2022-10-10T16:35:27.594Z,13.70
2022-10-10T16:37:55.443Z,13.67
2022-10-10T16:40:23.875Z,13.63
2022-10-10T16:42:52.139Z,13.59
2022-10-10T16:45:20.064Z,13.55
2022-10-10T16:47:48.413Z,13.54
2022-10-10T16:50:16.378Z,13.54
2022-10-10T16:52:44.435Z,13.55
2022-10-10T16:55:13.053Z,13.57
2022-10-10T16:57:41.162Z,13.61
2022-10-10T17:00:10.122Z,13.64
2022-10-10T17:02:42.321Z,13.67
2022-10-10T17:05:10.401Z,13.70
2022-10-10T17:07:38.258Z,13.74
2022-10-10T17:10:06.818Z,13.80
2022-10-10T17:12:34.827Z,13.84
2022-10-10T17:15:02.804Z,13.84
2022-10-10T17:17:30.780Z,13.83
2022-10-10T17:19:58.617Z,13.81
2022-10-10T17:22:26.441Z,13.79
2022-10-10T17:24:55.008Z,13.76
2022-10-10T17:27:23.810Z,13.70
2022-10-10T17:29:53.665Z,13.62
2022-10-10T17:32:22.179Z,13.53
2022-10-10T17:34:50.172Z,13.44
2022-10-10T17:37:18.198Z,13.34
2022-10-10T17:39:46.535Z,13.25
2022-10-10T17:42:14.505Z,13.19
2022-10-10T17:44:48.324Z,13.12
2022-10-10T17:47:19.619Z,13.08
2022-10-10T17:49:47.551Z,13.07
2022-10-10T17:52:20.369Z,13.08
2022-10-10T17:54:50.300Z,13.07
2022-10-10T17:57:19.002Z,13.04
2022-10-10T17:59:46.907Z,13.04
2022-10-10T18:02:17.574Z,13.06
2022-10-10T18:04:46.005Z,13.07
2022-10-10T18:07:15.222Z,13.07
2022-10-10T18:09:43.448Z,13.07
2022-10-10T18:12:11.791Z,13.08
2022-10-10T18:14:39.798Z,13.07
2022-10-10T18:17:07.630Z,13.05
2022-10-10T18:19:35.456Z,13.02
2022-10-10T18:22:04.516Z,12.98
2022-10-10T18:24:32.443Z,12.92
2022-10-10T18:27:00.406Z,12.87
2022-10-10T18:29:28.604Z,12.78
2022-10-10T18:31:56.703Z,12.71
2022-10-10T18:34:24.767Z,12.65
2022-10-10T18:36:52.629Z,12.58
2022-10-10T18:39:20.666Z,12.51
2022-10-10T18:41:48.768Z,12.45
2022-10-10T18:44:18.552Z,12.38
2022-10-10T18:46:46.563Z,12.36
2022-10-10T18:49:14.931Z,12.35
2022-10-10T18:51:43.825Z,12.31
2022-10-10T18:54:15.426Z,12.24
2022-10-10T18:56:44.967Z,12.14
2022-10-10T18:59:19.979Z,12.07
2022-10-10T19:01:48.041Z,12.02
2022-10-10T19:04:17.617Z,12.00
2022-10-10T19:06:45.563Z,11.98
2022-10-10T19:09:15.807Z,11.96
2022-10-10T19:11:46.510Z,11.92
2022-10-10T19:14:17.144Z,11.84
2022-10-10T19:16:46.759Z,11.75
2022-10-10T19:19:18.043Z,11.66
2022-10-10T19:21:48.077Z,11.57
2022-10-10T19:24:21.004Z,11.49
2022-10-10T19:26:53.303Z,11.40
2022-10-10T19:29:22.385Z,11.33
2022-10-10T19:31:51.198Z,11.29
2022-10-10T19:34:19.314Z,11.26
2022-10-10T19:36:47.493Z,11.23
2022-10-10T19:39:15.259Z,11.21
2022-10-10T19:41:43.345Z,11.20
2022-10-10T19:44:11.198Z,11.20
2022-10-10T19:46:39.090Z,11.19
2022-10-10T19:49:06.931Z,11.18
2022-10-10T19:51:34.710Z,11.16
2022-10-10T19:54:02.668Z,11.16
2022-10-10T19:56:30.545Z,11.14
2022-10-10T19:59:00.845Z,11.11
2022-10-10T20:01:30.259Z,11.07
2022-10-10T20:03:59.959Z,11.04
2022-10-10T20:06:27.982Z,11.02
2022-10-10T20:08:56.582Z,10.99
2022-10-10T20:11:26.575Z,10.97
2022-10-10T20:13:56.000Z,10.94
2022-10-10T20:16:26.383Z,10.91
2022-10-10T20:18:56.514Z,10.88
2022-10-10T20:21:32.521Z,10.84
2022-10-10T20:24:02.919Z,10.78
2022-10-10T20:26:30.690Z,10.70
2022-10-10T20:28:59.459Z,10.62
2022-10-10T20:31:30.163Z,10.54
2022-10-10T20:34:00.969Z,10.47
2022-10-10T20:36:33.726Z,10.43
2022-10-10T20:39:06.498Z,10.37
2022-10-10T20:41:36.208Z,10.34
2022-10-10T20:44:05.912Z,10.31
2022-10-10T20:46:35.982Z,10.28
2022-10-10T20:49:07.504Z,10.25
2022-10-10T20:51:35.330Z,10.24
2022-10-10T20:54:05.725Z,10.24
2022-10-10T20:56:35.571Z,10.21
2022-10-10T20:59:03.621Z,10.21
2022-10-10T21:01:31.552Z,10.21
2022-10-10T21:04:00.617Z,10.19
2022-10-10T21:06:34.626Z,10.18
2022-10-10T21:09:06.561Z,10.16
2022-10-10T21:11:35.631Z,10.15
2022-10-10T21:14:03.482Z,10.10
2022-10-10T21:16:34.482Z,10.07
2022-10-10T21:19:03.735Z,10.07
2022-10-10T21:21:34.963Z,10.07
2022-10-10T21:24:06.469Z,10.04
2022-10-10T21:26:34.668Z,9.96
2022-10-10T21:29:03.118Z,9.88
2022-10-10T21:31:36.905Z,9.80
2022-10-10T21:34:11.231Z,9.73
2022-10-10T21:36:39.750Z,9.66
2022-10-10T21:39:08.074Z,9.61
2022-10-10T21:41:36.947Z,9.57
2022-10-10T21:44:06.233Z,9.54
2022-10-10T21:46:37.051Z,9.52
2022-10-10T21:49:07.972Z,9.50
2022-10-10T21:51:41.748Z,9.50
2022-10-10T21:54:10.161Z,9.51
2022-10-10T21:56:38.783Z,9.53
2022-10-10T21:59:06.892Z,9.55
2022-10-10T22:01:35.011Z,9.55
2022-10-10T22:04:04.075Z,9.56
2022-10-10T22:06:32.485Z,9.56
2022-10-10T22:09:02.005Z,9.56
2022-10-10T22:11:32.228Z,9.55
2022-10-10T22:14:02.682Z,9.56
2022-10-10T22:16:34.841Z,9.56
2022-10-10T22:19:03.301Z,9.55
2022-10-10T22:21:32.325Z,9.56
2022-10-10T22:24:02.833Z,9.57
2022-10-10T22:26:31.296Z,9.58
2022-10-10T22:28:59.363Z,9.57
2022-10-10T22:31:27.532Z,9.56
2022-10-10T22:33:55.359Z,9.50
2022-10-10T22:36:23.157Z,9.45
2022-10-10T22:38:51.033Z,9.41
2022-10-10T22:41:18.896Z,9.37
2022-10-10T22:43:47.381Z,9.34
2022-10-10T22:46:15.241Z,9.32
2022-10-10T22:48:43.588Z,9.30
2022-10-10T22:51:14.607Z,9.28
2022-10-10T22:53:44.496Z,9.27
2022-10-10T22:56:17.660Z,9.26
2022-10-10T22:58:46.561Z,9.22
2022-10-10T23:01:17.335Z,9.18
2022-10-10T23:03:45.624Z,9.10
2022-10-10T23:06:14.057Z,9.03
2022-10-10T23:08:41.967Z,8.99
2022-10-10T23:11:09.792Z,8.98
2022-10-10T23:13:37.633Z,8.98
2022-10-10T23:16:06.188Z,8.98
2022-10-10T23:18:34.410Z,8.99
2022-10-10T23:21:02.275Z,9.00
2022-10-10T23:23:30.070Z,9.02
2022-10-10T23:25:57.921Z,9.00
2022-10-10T23:28:25.927Z,8.97
2022-10-10T23:30:53.753Z,8.95
2022-10-10T23:33:21.643Z,8.94
2022-10-10T23:36:00.899Z,8.92
2022-10-10T23:38:29.347Z,8.90
2022-10-10T23:40:57.452Z,8.88
2022-10-10T23:43:25.481Z,8.85
2022-10-10T23:45:53.494Z,8.80
2022-10-10T23:48:21.384Z,8.74
2022-10-10T23:50:49.319Z,8.67
2022-10-10T23:53:17.306Z,8.61
2022-10-10T23:55:46.814Z,8.60
2022-10-10T23:58:15.419Z,8.60
